Time;durP1;ratioP1;P1;durP2;ratioP2;P2;SDS_P1;SDS_P2;PMS_P1;PMS_P2;Temp;Humidity;BMP_temperature;BMP_pressure;BME280_temperature;BME280_humidity;BME280_pressure;Samples;Min_cycle;Max_cycle;Signal;HPM_P1;HPM_P2
2021/07/17 00:00:58;;;;;;;;;;;;;;;-142.75;68.56;77582.22;5027240;28;19925;-79
2021/07/17 00:03:24;;;;;;;;;;;;;;;-142.75;68.44;77584.19;5029556;28;19972;-79
2021/07/17 00:05:49;;;;;;;;;;;;;;;-142.75;68.59;77588.13;5028070;28;19963;-81
2021/07/17 00:08:14;;;;;;;;;;;;;;;-142.75;68.63;77588.13;5017320;28;20035;-79
2021/07/17 00:10:43;;;;;;;;;;;;;;;-142.75;68.42;77586.16;5030340;28;20294;-80
2021/07/17 00:13:09;;;;;;;;;;;;;;;-142.75;68.52;77590.09;5033847;28;19924;-80
2021/07/17 00:15:34;;;;;;;;;;;;;;;-142.75;68.66;77596.00;5033626;28;19917;-78
2021/07/17 00:18:00;;;;;;;;;;;;;;;-142.75;68.49;77590.09;5033576;28;19921;-81
2021/07/17 00:20:26;;;;;;;;;;;;;;;-142.75;68.53;77588.13;5033509;28;19917;-80
2021/07/17 00:22:51;;;;;;;;;;;;;;;-142.75;68.60;77590.09;5033564;28;20298;-81
2021/07/17 00:25:17;;;;;;;;;;;;;;;-142.75;68.64;77594.03;5033233;28;19921;-81
2021/07/17 00:27:42;;;;;;;;;;;;;;;-142.75;68.69;77599.94;5033253;28;19969;-79
2021/07/17 00:30:08;;;;;;;;;;;;;;;-142.75;68.73;77603.88;5033172;28;20367;-79
2021/07/17 00:32:33;;;;;;;;;;;;;;;-142.75;68.78;77605.84;5033356;28;20011;-81
2021/07/17 00:34:58;;;;;;;;;;;;;;;-142.75;68.94;77601.91;5033151;28;19917;-80
2021/07/17 00:37:24;;;;;;;;;;;;;;;-142.75;68.92;77603.88;5032544;28;20016;-80
2021/07/17 00:39:49;;;;;;;;;;;;;;;-142.75;69.01;77601.91;5033091;28;19931;-81
2021/07/17 00:42:14;;;;;;;;;;;;;;;-142.75;69.02;77592.06;5033304;28;19921;-79
2021/07/17 00:44:39;;;;;;;;;;;;;;;-142.75;68.90;77594.03;5019566;28;19917;-81
2021/07/17 00:47:06;;;;;;;;;;;;;;;-142.75;69.07;77601.91;5015428;28;19917;-79
2021/07/17 00:49:31;;;;;;;;;;;;;;;-142.75;69.13;77603.88;5015053;28;19969;-81
2021/07/17 00:51:56;;;;;;;;;;;;;;;-142.75;69.13;77603.88;5021064;28;19930;-82
2021/07/17 00:54:26;;;;;;;;;;;;;;;-142.75;69.17;77603.88;5021870;28;19967;-79
2021/07/17 00:56:52;;;;;;;;;;;;;;;-142.75;69.16;77597.97;5033417;28;19967;-81
2021/07/17 00:59:18;;;;;;;;;;;;;;;-142.75;69.18;77596.00;5015265;28;20007;-81
2021/07/17 01:01:43;;;;;;;;;;;;;;;-142.75;69.17;77596.00;5014534;28;19928;-78
2021/07/17 01:04:09;;;;;;;;;;;;;;;-142.75;69.11;77597.97;5031482;28;19917;-80
2021/07/17 01:06:34;;;;;;;;;;;;;;;-142.75;69.11;77592.06;5032743;28;19924;-81
2021/07/17 01:09:00;;;;;;;;;;;;;;;-142.75;69.18;77596.00;5032923;28;19971;-81
2021/07/17 01:11:25;;;;;;;;;;;;;;;-142.75;69.54;77597.97;5033076;28;19928;-80
2021/07/17 01:13:50;;;;;;;;;;;;;;;-142.75;69.32;77601.91;5015089;28;19928;-79
2021/07/17 01:16:15;;;;;;;;;;;;;;;-142.75;69.23;77596.00;5032769;28;19963;-81
2021/07/17 01:18:41;;;;;;;;;;;;;;;-142.75;69.41;77596.00;5030472;28;19921;-81
2021/07/17 01:21:07;;;;;;;;;;;;;;;-142.75;69.42;77601.91;5015166;28;19917;-81
2021/07/17 01:23:33;;;;;;;;;;;;;;;-142.75;69.46;77597.97;5029219;28;19917;-81
2021/07/17 01:25:58;;;;;;;;;;;;;;;-142.75;69.54;77590.09;5032244;28;19925;-81
2021/07/17 01:28:23;;;;;;;;;;;;;;;-142.75;69.61;77596.00;5032989;28;20370;-78
2021/07/17 01:30:49;;;;;;;;;;;;;;;-142.75;69.70;77597.97;5024013;28;20391;-80
2021/07/17 01:33:14;;;;;;;;;;;;;;;-142.75;69.71;77596.00;5032621;28;19917;-81
2021/07/17 01:35:39;;;;;;;;;;;;;;;-142.75;69.73;77605.84;5032133;28;19963;-80
2021/07/17 01:38:05;;;;;;;;;;;;;;;-142.75;69.75;77605.84;5032142;28;19917;-80
2021/07/17 01:40:30;;;;;;;;;;;;;;;-142.75;69.86;77605.84;5032344;28;19924;-79
2021/07/17 01:42:58;;;;;;;;;;;;;;;-142.75;69.85;77605.84;5014879;28;20379;-81
2021/07/17 01:45:23;;;;;;;;;;;;;;;-142.75;69.75;77603.88;5032129;28;19924;-82
2021/07/17 01:47:48;;;;;;;;;;;;;;;-142.75;70.06;77613.72;5031932;28;20294;-79
2021/07/17 01:50:13;;;;;;;;;;;;;;;-142.75;69.98;77613.72;5031762;28;20007;-82
2021/07/17 01:52:39;;;;;;;;;;;;;;;-142.75;70.08;77621.59;5014077;28;19924;-79
2021/07/17 01:55:07;;;;;;;;;;;;;;;-142.75;70.09;77623.56;5032067;28;19917;-80
2021/07/17 01:57:33;;;;;;;;;;;;;;;-142.75;69.96;77619.63;5032430;28;19979;-80
2021/07/17 01:59:58;;;;;;;;;;;;;;;-142.75;70.01;77621.59;5031535;28;19964;-81
2021/07/17 02:02:23;;;;;;;;;;;;;;;-142.75;70.09;77621.59;5031907;28;20353;-81
2021/07/17 02:04:48;;;;;;;;;;;;;;;-142.75;69.91;77625.53;5032302;28;19923;-81
2021/07/17 02:07:13;;;;;;;;;;;;;;;-142.75;70.10;77633.41;5031968;28;20313;-80
2021/07/17 02:09:39;;;;;;;;;;;;;;;-142.75;70.09;77633.41;5032002;28;19924;-81
2021/07/17 02:12:04;;;;;;;;;;;;;;;-142.75;70.04;77635.38;5026694;28;20012;-80
2021/07/17 02:14:34;;;;;;;;;;;;;;;-142.75;70.25;77643.25;5031758;28;19921;-81
2021/07/17 02:16:59;;;;;;;;;;;;;;;-142.75;70.38;77651.13;5030767;28;19917;-81
2021/07/17 02:19:24;;;;;;;;;;;;;;;-142.75;70.55;77657.03;5016674;28;19967;-81
2021/07/17 02:21:50;;;;;;;;;;;;;;;-142.75;70.68;77666.88;5031389;28;20303;-82
2021/07/17 02:24:16;;;;;;;;;;;;;;;-142.75;70.89;77676.72;5014084;28;19925;-80
2021/07/17 02:26:42;;;;;;;;;;;;;;;-142.75;71.02;77680.66;5027630;28;19921;-80
2021/07/17 02:29:07;;;;;;;;;;;;;;;-142.75;71.13;77680.66;5014044;28;20284;-81
2021/07/17 02:31:32;;;;;;;;;;;;;;;-142.75;71.29;77684.59;5031092;28;20014;-82
2021/07/17 02:33:57;;;;;;;;;;;;;;;-142.75;71.25;77690.50;5031409;28;19917;-80
2021/07/17 02:36:24;;;;;;;;;;;;;;;-142.75;71.35;77692.47;5031451;28;19929;-80
2021/07/17 02:38:50;;;;;;;;;;;;;;;-142.75;71.40;77702.31;5031388;28;19917;-80
2021/07/17 02:41:15;;;;;;;;;;;;;;;-142.75;71.53;77700.34;5031539;28;20397;-81
2021/07/17 02:43:40;;;;;;;;;;;;;;;-142.75;71.67;77708.22;5031743;28;20308;-81
2021/07/17 02:46:05;;;;;;;;;;;;;;;-142.75;71.66;77708.22;5031325;28;19917;-81
2021/07/17 02:48:30;;;;;;;;;;;;;;;-142.75;71.72;77712.16;5031435;28;19960;-80
2021/07/17 02:50:55;;;;;;;;;;;;;;;-142.75;71.78;77716.09;5030910;28;19926;-82
2021/07/17 02:53:21;;;;;;;;;;;;;;;-142.75;71.84;77722.00;5031540;28;20410;-79
2021/07/17 02:55:46;;;;;;;;;;;;;;;-142.75;71.99;77729.88;5021645;28;19917;-81
2021/07/17 02:58:11;;;;;;;;;;;;;;;-142.75;72.22;77733.84;5031791;28;19921;-81
2021/07/17 03:00:37;;;;;;;;;;;;;;;-142.75;72.28;77733.84;5030934;28;20335;-82
2021/07/17 03:03:02;;;;;;;;;;;;;;;-142.75;72.53;77735.81;5032501;28;19925;-81
2021/07/17 03:05:28;;;;;;;;;;;;;;;-142.75;72.70;77743.69;5024121;28;19931;-80
2021/07/17 03:07:53;;;;;;;;;;;;;;;-142.75;72.73;77749.59;5030851;28;19940;-81
2021/07/17 03:10:18;;;;;;;;;;;;;;;-142.75;72.90;77749.59;5022630;28;19917;-81
2021/07/17 03:12:43;;;;;;;;;;;;;;;-142.75;73.16;77745.66;5031103;28;20299;-80
2021/07/17 03:15:09;;;;;;;;;;;;;;;-142.75;73.35;77745.66;5020968;28;19918;-81
2021/07/17 03:17:34;;;;;;;;;;;;;;;-142.75;73.55;77749.59;5013133;28;19936;-81
2021/07/17 03:19:59;;;;;;;;;;;;;;;-142.75;73.40;77759.44;5012823;28;19917;-79
2021/07/17 03:22:24;;;;;;;;;;;;;;;-142.75;73.58;77759.44;5030895;28;19927;-81
2021/07/17 03:24:50;;;;;;;;;;;;;;;-142.75;73.56;77753.53;5030783;28;20013;-82
2021/07/17 03:27:15;;;;;;;;;;;;;;;-142.75;73.83;77755.50;5013645;28;19924;-80
2021/07/17 03:29:40;;;;;;;;;;;;;;;-142.75;73.80;77763.38;5031201;28;19928;-83
2021/07/17 03:32:05;;;;;;;;;;;;;;;-142.75;73.80;77761.41;5030600;28;19980;-81
2021/07/17 03:34:31;;;;;;;;;;;;;;;-142.75;73.96;77763.38;5030543;28;19960;-81
2021/07/17 03:36:56;;;;;;;;;;;;;;;-142.75;73.80;77769.28;5030494;28;19917;-80
2021/07/17 03:39:21;;;;;;;;;;;;;;;-142.75;73.99;77771.25;5030696;28;20383;-81
2021/07/17 03:41:46;;;;;;;;;;;;;;;-142.75;74.10;77777.16;5022502;28;19921;-81
2021/07/17 03:44:13;;;;;;;;;;;;;;;-142.75;74.14;77775.19;5030942;28;19918;-80
2021/07/17 03:46:38;;;;;;;;;;;;;;;-142.75;74.11;77783.06;5029695;28;19933;-80
2021/07/17 03:49:03;;;;;;;;;;;;;;;-142.75;74.14;77787.00;5015349;28;19917;-82
2021/07/17 03:51:29;;;;;;;;;;;;;;;-142.75;74.22;77790.94;5022280;28;19917;-81
2021/07/17 03:53:54;;;;;;;;;;;;;;;-142.75;74.29;77788.97;5030278;28;19917;-81
2021/07/17 03:56:19;;;;;;;;;;;;;;;-142.75;74.23;77790.94;5030191;28;19924;-81
2021/07/17 03:58:44;;;;;;;;;;;;;;;-142.75;74.48;77792.91;5019300;28;19956;-82
2021/07/17 04:01:10;;;;;;;;;;;;;;;-142.75;74.49;77794.88;5021801;28;19948;-81
2021/07/17 04:03:35;;;;;;;;;;;;;;;-142.75;74.54;77792.91;5030135;28;20012;-78
2021/07/17 04:06:00;;;;;;;;;;;;;;;-142.75;74.60;77794.88;5010796;28;19923;-81
2021/07/17 04:08:26;;;;;;;;;;;;;;;-142.75;74.81;77792.91;5030144;28;20466;-81
2021/07/17 04:10:51;;;;;;;;;;;;;;;-142.75;74.83;77794.88;5029226;28;19967;-81
2021/07/17 04:13:16;;;;;;;;;;;;;;;-142.75;74.97;77794.88;5030108;28;19917;-82
2021/07/17 04:15:41;;;;;;;;;;;;;;;-142.75;74.86;77794.88;5029901;28;20007;-79
2021/07/17 04:18:07;;;;;;;;;;;;;;;-142.75;74.91;77796.84;5020520;28;19959;-79
2021/07/17 04:20:32;;;;;;;;;;;;;;;-142.75;74.86;77792.91;5029811;28;20024;-82
2021/07/17 04:22:57;;;;;;;;;;;;;;;-142.75;74.99;77787.00;5029874;28;20407;-81
2021/07/17 04:25:22;;;;;;;;;;;;;;;-142.75;74.97;77788.97;5029880;28;19917;-81
2021/07/17 04:27:47;;;;;;;;;;;;;;;-142.75;75.18;77787.00;5019196;28;19933;-81
2021/07/17 04:30:13;;;;;;;;;;;;;;;-142.75;75.16;77788.97;5012073;28;19925;-80
2021/07/17 04:32:38;;;;;;;;;;;;;;;-142.75;75.24;77787.00;5029971;28;20402;-79
2021/07/17 04:35:04;;;;;;;;;;;;;;;-142.75;75.24;77787.00;5029832;28;19917;-81
2021/07/17 04:37:29;;;;;;;;;;;;;;;-142.75;75.37;77775.19;5011040;28;19963;-81
2021/07/17 04:39:55;;;;;;;;;;;;;;;-142.75;75.33;77767.31;5029712;28;19921;-81
2021/07/17 04:42:20;;;;;;;;;;;;;;;-142.75;75.21;77763.38;5030424;28;19921;-80
2021/07/17 04:44:45;;;;;;;;;;;;;;;-142.75;75.05;77763.38;5030117;28;19949;-81
2021/07/17 04:47:11;;;;;;;;;;;;;;;-142.75;75.05;77747.63;5029929;28;19991;-80
2021/07/17 04:49:36;;;;;;;;;;;;;;;-142.75;75.06;77739.75;5012059;28;19917;-80
2021/07/17 04:52:01;;;;;;;;;;;;;;;-142.75;74.92;77737.78;5020262;28;19925;-80
2021/07/17 04:54:27;;;;;;;;;;;;;;;-142.75;74.87;77733.84;5029643;28;20294;-80
2021/07/17 04:56:52;;;;;;;;;;;;;;;-142.75;74.98;77720.03;5030662;28;19963;-81
2021/07/17 04:59:17;;;;;;;;;;;;;;;-142.75;74.92;77718.06;5033245;28;19917;-81
2021/07/17 05:01:42;;;;;;;;;;;;;;;-142.75;74.79;77708.22;5015396;28;19921;-78
2021/07/17 05:04:07;;;;;;;;;;;;;;;-142.75;74.81;77702.31;5033257;28;19960;-81
2021/07/17 05:06:33;;;;;;;;;;;;;;;-142.75;74.77;77696.41;5020997;28;19918;-79
2021/07/17 05:08:58;;;;;;;;;;;;;;;-142.75;74.75;77684.59;5033128;28;19917;-81
2021/07/17 05:11:25;;;;;;;;;;;;;;;-142.75;74.68;77680.66;5032457;28;21286;-81
2021/07/17 05:13:50;;;;;;;;;;;;;;;-142.75;74.45;77659.00;5021634;28;20458;-81
2021/07/17 05:16:15;;;;;;;;;;;;;;;-142.75;74.27;77643.25;5015091;28;19924;-79
2021/07/17 05:18:40;;;;;;;;;;;;;;;-142.75;73.88;77641.28;5032744;28;19921;-81
2021/07/17 05:21:06;;;;;;;;;;;;;;;-142.75;73.75;77621.59;5022959;28;20382;-80
2021/07/17 05:23:31;;;;;;;;;;;;;;;-142.75;73.53;77609.78;5032705;28;19960;-81
2021/07/17 05:25:56;;;;;;;;;;;;;;;-142.75;73.23;77603.88;5032297;28;19953;-80
2021/07/17 05:28:22;;;;;;;;;;;;;;;-142.75;73.15;77590.09;5032819;28;20337;-79
2021/07/17 05:30:47;;;;;;;;;;;;;;;-142.75;72.91;77578.28;5032637;28;19921;-80
2021/07/17 05:33:13;;;;;;;;;;;;;;;-142.75;72.68;77566.47;5032563;28;19971;-81
2021/07/17 05:35:39;;;;;;;;;;;;;;;-142.75;72.52;77548.75;5032552;28;19917;-80
2021/07/17 05:38:04;;;;;;;;;;;;;;;-142.75;71.86;77527.09;5032625;28;20288;-81
2021/07/17 05:40:29;;;;;;;;;;;;;;;-142.75;71.53;77499.53;5030393;28;19941;-80
2021/07/17 05:42:54;;;;;;;;;;;;;;;-142.75;71.06;77485.75;5032738;28;19921;-80
2021/07/17 05:45:20;;;;;;;;;;;;;;;-142.75;70.55;77460.13;5024133;28;20379;-81
2021/07/17 05:47:45;;;;;;;;;;;;;;;-142.75;69.78;77436.50;5032111;28;19917;-81
2021/07/17 05:50:10;;;;;;;;;;;;;;;-142.75;69.14;77406.97;5032023;28;19917;-82
2021/07/17 05:52:35;;;;;;;;;;;;;;;-142.75;68.67;77375.47;5032226;28;20546;-79
2021/07/17 05:55:01;;;;;;;;;;;;;;;-142.75;68.03;77342.00;5018204;28;19928;-81
2021/07/17 05:57:26;;;;;;;;;;;;;;;-142.75;67.02;77308.53;5030605;28;20398;-80
2021/07/17 05:59:52;;;;;;;;;;;;;;;-142.75;66.40;77273.09;5031588;28;19917;-79
2021/07/17 06:02:17;;;;;;;;;;;;;;;-142.75;65.43;77245.53;5029629;28;19968;-81
2021/07/17 06:04:43;;;;;;;;;;;;;;;-142.75;64.33;77208.13;5025088;28;19971;-81
2021/07/17 06:07:08;;;;;;;;;;;;;;;-142.75;63.70;77176.63;5031965;28;19925;-80
2021/07/17 06:09:33;;;;;;;;;;;;;;;-142.75;62.40;77123.47;5031039;28;19917;-79
2021/07/17 06:11:58;;;;;;;;;;;;;;;-142.75;61.88;77093.94;5031316;28;20342;-80
2021/07/17 06:14:23;;;;;;;;;;;;;;;-142.75;61.06;77060.47;5031545;28;19948;-78
2021/07/17 06:16:49;;;;;;;;;;;;;;;-142.75;60.06;77034.88;5031657;28;20349;-79
2021/07/17 06:19:14;;;;;;;;;;;;;;;-142.75;59.19;77011.25;5031126;28;20020;-81
2021/07/17 06:21:39;;;;;;;;;;;;;;;-142.75;59.25;76987.63;5030962;28;19922;-81
2021/07/17 06:24:05;;;;;;;;;;;;;;;-142.75;58.45;76954.16;5031547;28;19917;-80
2021/07/17 06:26:31;;;;;;;;;;;;;;;-142.75;57.47;76932.50;5013225;28;19998;-81
2021/07/17 06:28:56;;;;;;;;;;;;;;;-142.75;56.99;76893.13;5030894;28;19924;-79
2021/07/17 06:31:22;;;;;;;;;;;;;;;-142.75;56.25;76873.44;5030467;28;19929;-81
2021/07/17 06:33:47;;;;;;;;;;;;;;;-142.75;55.92;76849.81;5019721;28;19993;-81
2021/07/17 06:36:13;;;;;;;;;;;;;;;-142.75;55.20;76822.25;5030946;28;19921;-80
2021/07/17 06:38:38;;;;;;;;;;;;;;;-142.75;54.95;76790.78;5013522;28;19916;-78
2021/07/17 06:41:03;;;;;;;;;;;;;;;-142.75;54.14;76763.22;5032479;28;19917;-79
2021/07/17 06:43:29;;;;;;;;;;;;;;;-142.75;53.40;76741.56;5032103;28;19968;-81
2021/07/17 06:45:54;;;;;;;;;;;;;;;-142.75;53.46;76710.06;5031075;28;19928;-80
2021/07/17 06:48:19;;;;;;;;;;;;;;;-142.75;52.78;76690.38;5031191;28;19921;-80
2021/07/17 06:50:44;;;;;;;;;;;;;;;-142.75;51.77;76643.13;5031221;28;20389;-80
2021/07/17 06:53:10;;;;;;;;;;;;;;;-142.75;51.73;76617.53;5033216;28;19917;-80
2021/07/17 06:55:35;;;;;;;;;;;;;;;-142.75;50.74;76572.25;5031730;28;19923;-80
2021/07/17 06:58:00;;;;;;;;;;;;;;;-142.75;49.95;76538.78;5013789;28;20294;-81
2021/07/17 07:00:25;;;;;;;;;;;;;;;-142.75;49.73;76509.28;5031406;28;20075;-81
2021/07/17 07:02:51;;;;;;;;;;;;;;;-142.75;49.04;76475.81;5031794;28;19968;-80
2021/07/17 07:05:16;;;;;;;;;;;;;;;-142.75;47.98;76458.09;5031136;28;19917;-78
2021/07/17 07:07:41;;;;;;;;;;;;;;;-142.75;47.71;76438.41;5032505;28;19921;-78
2021/07/17 07:10:07;;;;;;;;;;;;;;;-142.75;47.21;76406.91;5031857;28;19917;-80
2021/07/17 07:12:35;;;;;;;;;;;;;;;-142.75;46.89;76359.66;5032911;28;19952;-79
2021/07/17 07:15:00;;;;;;;;;;;;;;;-142.75;46.21;76310.47;5014528;28;20299;-81
2021/07/17 07:17:25;;;;;;;;;;;;;;;-142.75;45.75;76288.81;5031808;28;20080;-78
2021/07/17 07:19:50;;;;;;;;;;;;;;;-142.75;45.45;76263.22;5013577;28;19979;-78
2021/07/17 07:22:16;;;;;;;;;;;;;;;-142.75;44.83;76243.53;5018519;28;19921;-79
2021/07/17 07:24:41;;;;;;;;;;;;;;;-142.75;43.84;76229.75;5032084;28;20417;-78
2021/07/17 07:27:06;;;;;;;;;;;;;;;-142.75;44.69;76198.28;5031816;28;19917;-79
2021/07/17 07:29:32;;;;;;;;;;;;;;;-142.75;43.40;76145.13;5032424;28;19943;-79
2021/07/17 07:31:59;;;;;;;;;;;;;;;-142.75;42.81;76091.97;5024739;28;19917;-79
2021/07/17 07:34:24;;;;;;;;;;;;;;;-142.75;42.07;76072.31;5025679;28;19940;-80
2021/07/17 07:36:50;;;;;;;;;;;;;;;-142.75;41.43;76005.38;5029633;28;20076;-80
2021/07/17 07:39:15;;;;;;;;;;;;;;;-142.75;41.19;76003.41;5033182;28;19924;-79
2021/07/17 07:41:41;;;;;;;;;;;;;;;-142.75;39.87;75936.50;5025911;28;19929;-80
2021/07/17 07:44:06;;;;;;;;;;;;;;;-142.75;40.44;75946.34;5034365;28;19955;-80
2021/07/17 07:46:34;;;;;;;;;;;;;;;-142.75;39.80;75893.19;5015091;28;19940;-81
2021/07/17 07:48:59;;;;;;;;;;;;;;;-142.75;39.18;75855.81;5035176;28;19992;-80
2021/07/17 07:51:25;;;;;;;;;;;;;;;-142.75;38.48;75845.97;5031519;28;19952;-79
2021/07/17 07:53:50;;;;;;;;;;;;;;;-142.75;38.43;75838.09;5017014;28;19917;-81
2021/07/17 07:56:15;;;;;;;;;;;;;;;-142.75;38.21;75788.88;5034911;28;19975;-80
2021/07/17 07:58:41;;;;;;;;;;;;;;;-142.75;38.01;75749.53;5034215;28;19928;-79
2021/07/17 08:01:06;;;;;;;;;;;;;;;-142.75;37.66;75710.16;5035634;28;19924;-80
2021/07/17 08:03:31;;;;;;;;;;;;;;;-142.75;37.32;75692.44;5033340;28;19925;-80
2021/07/17 08:05:56;;;;;;;;;;;;;;;-142.75;37.31;75676.69;5035022;28;20375;-79
2021/07/17 08:08:21;;;;;;;;;;;;;;;-142.75;36.64;75639.31;5016138;28;20008;-80
2021/07/17 08:10:47;;;;;;;;;;;;;;;-142.75;36.19;75631.44;5033180;28;19923;-80
2021/07/17 08:13:12;;;;;;;;;;;;;;;-142.75;36.31;75596.00;5033497;28;20383;-79
2021/07/17 08:15:37;;;;;;;;;;;;;;;-142.75;35.53;75566.50;5016882;28;19924;-78
2021/07/17 08:18:02;;;;;;;;;;;;;;;-142.75;35.25;75564.53;5034156;28;19992;-80
2021/07/17 08:20:28;;;;;;;;;;;;;;;-142.75;35.04;75519.25;5028616;28;19917;-78
2021/07/17 08:22:53;;;;;;;;;;;;;;;-142.75;34.53;75491.72;5027943;28;19972;-81
2021/07/17 08:25:18;;;;;;;;;;;;;;;-142.75;34.65;75436.59;5034527;28;19922;-81
2021/07/17 08:27:44;;;;;;;;;;;;;;;-142.75;34.07;75405.13;5016773;28;19944;-79
2021/07/17 08:30:11;;;;;;;;;;;;;;;-142.75;33.87;75424.81;5034662;28;19917;-80
2021/07/17 08:32:36;;;;;;;;;;;;;;;-142.75;34.15;75409.06;5017677;28;20298;-80
2021/07/17 08:35:01;;;;;;;;;;;;;;;-142.75;33.98;75387.41;5019631;28;19921;-79
2021/07/17 08:37:26;;;;;;;;;;;;;;;-142.75;32.92;75350.03;5038680;28;19921;-77
2021/07/17 08:39:52;;;;;;;;;;;;;;;-142.75;33.09;75353.97;5020802;28;19917;-79
2021/07/17 08:42:18;;;;;;;;;;;;;;;-142.75;32.88;75350.03;5039041;28;19975;-80
2021/07/17 08:44:47;;;;;;;;;;;;;;;-142.75;32.48;75348.06;5037494;28;20554;-80
2021/07/17 08:47:13;;;;;;;;;;;;;;;-142.75;32.54;75336.25;5035281;28;20283;-80
2021/07/17 08:49:38;;;;;;;;;;;;;;;-142.75;32.50;75306.72;5037842;28;19917;-80
2021/07/17 08:52:04;;;;;;;;;;;;;;;-142.75;31.74;75277.22;5019698;28;19974;-80
2021/07/17 08:54:29;;;;;;;;;;;;;;;-142.75;32.18;75251.63;5026156;28;20011;-81
2021/07/17 08:56:55;;;;;;;;;;;;;;;-142.75;31.85;75287.06;5018740;28;19917;-80
2021/07/17 08:59:20;;;;;;;;;;;;;;;-142.75;31.69;75237.84;5038353;28;19925;-79
2021/07/17 09:01:45;;;;;;;;;;;;;;;-142.75;31.91;75243.75;5037494;28;20019;-80
2021/07/17 09:04:10;;;;;;;;;;;;;;;-142.75;31.89;75235.88;5038371;28;19917;-82
2021/07/17 09:06:36;;;;;;;;;;;;;;;-142.75;31.22;75224.09;5037935;28;19917;-78
2021/07/17 09:09:02;;;;;;;;;;;;;;;-142.75;31.35;75192.59;5031778;28;19961;-80
2021/07/17 09:11:34;;;;;;;;;;;;;;;-142.75;31.49;75168.97;5037078;28;20371;-81
2021/07/17 09:13:59;;;;;;;;;;;;;;;-142.75;30.75;75163.09;5034751;28;20374;-78
2021/07/17 09:16:28;;;;;;;;;;;;;;;-142.75;30.63;75176.84;5036008;28;19925;-79
2021/07/17 09:18:54;;;;;;;;;;;;;;;-142.75;30.36;75165.03;5033752;28;19925;-79
2021/07/17 09:21:26;;;;;;;;;;;;;;;-142.75;29.77;75121.75;5035893;28;19984;-81
2021/07/17 09:23:52;;;;;;;;;;;;;;;-142.75;29.75;75109.94;5015585;28;19960;-80
2021/07/17 09:26:22;;;;;;;;;;;;;;;-142.75;29.88;75096.19;5035931;28;20342;-80
2021/07/17 09:29:06;;;;;;;;;;;;;;;-142.75;28.97;75090.28;5034446;28;20418;-81
2021/07/17 09:31:36;;;;;;;;;;;;;;;-142.75;29.79;75113.88;5016627;28;19921;-80
2021/07/17 09:34:04;;;;;;;;;;;;;;;-142.75;29.50;75111.91;5034970;28;19971;-79
2021/07/17 09:36:29;;;;;;;;;;;;;;;-142.75;30.21;75151.28;5034812;28;19947;-80
2021/07/17 09:38:54;;;;;;;;;;;;;;;-142.75;29.82;75094.22;5035311;28;19967;-81
2021/07/17 09:41:20;;;;;;;;;;;;;;;-142.75;29.50;75062.72;5034762;28;19924;-79
2021/07/17 09:43:46;;;;;;;;;;;;;;;-142.75;29.27;75078.47;5035354;28;19924;-80
2021/07/17 09:46:15;;;;;;;;;;;;;;;-142.75;29.56;75082.41;5034936;28;19924;-80
2021/07/17 09:48:44;;;;;;;;;;;;;;;-142.75;29.93;75080.44;5033640;28;19917;-80
2021/07/17 09:51:10;;;;;;;;;;;;;;;-142.75;30.29;75192.59;5034815;28;19987;-79
2021/07/17 09:53:48;;;;;;;;;;;;;;;-142.75;30.39;75143.41;5032402;28;20416;-80
2021/07/17 09:56:17;;;;;;;;;;;;;;;-142.75;30.02;75109.94;5034282;28;19939;-81
2021/07/17 09:58:43;;;;;;;;;;;;;;;-142.75;29.53;75082.41;5023510;28;20302;-81
2021/07/17 10:01:23;;;;;;;;;;;;;;;-142.75;28.95;75086.34;5032237;28;19917;-81
2021/07/17 10:03:49;;;;;;;;;;;;;;;-142.75;29.82;75078.47;5034109;28;19921;-80
2021/07/17 10:06:28;;;;;;;;;;;;;;;-142.75;28.43;75031.25;5034134;28;19955;-81
2021/07/17 10:08:53;;;;;;;;;;;;;;;-142.75;28.23;75050.91;5033979;28;19917;-81
2021/07/17 10:11:23;;;;;;;;;;;;;;;-142.75;28.59;75082.41;5022514;28;19940;-80
2021/07/17 10:13:48;;;;;;;;;;;;;;;-142.75;28.50;75054.84;5033375;28;19917;-81
2021/07/17 10:16:20;;;;;;;;;;;;;;;-142.75;28.37;75027.31;5031059;28;19918;-81
2021/07/17 10:18:46;;;;;;;;;;;;;;;-142.75;28.03;75019.44;5033330;28;19959;-80
2021/07/17 10:21:12;;;;;;;;;;;;;;;-142.75;28.20;75054.84;5017948;28;19971;-82
2021/07/17 10:23:37;;;;;;;;;;;;;;;-142.75;27.57;75035.19;5014984;28;20372;-80
2021/07/17 10:26:03;;;;;;;;;;;;;;;-142.75;27.55;74993.84;5035864;28;19996;-80
2021/07/17 10:28:29;;;;;;;;;;;;;;;-142.75;27.17;74974.19;5036263;28;19925;-79
2021/07/17 10:30:54;;;;;;;;;;;;;;;-142.75;27.82;75003.69;5032711;28;19925;-80
2021/07/17 10:33:19;;;;;;;;;;;;;;;-142.75;27.95;75019.44;5030981;28;20005;-79
2021/07/17 10:35:46;;;;;;;;;;;;;;;-142.75;27.90;75031.25;5028165;28;19917;-81
2021/07/17 10:38:12;;;;;;;;;;;;;;;-142.75;27.78;75068.63;5032811;28;20391;-79
2021/07/17 10:40:38;;;;;;;;;;;;;;;-142.75;27.78;75068.63;5032547;28;19917;-78
2021/07/17 10:43:04;;;;;;;;;;;;;;;-142.75;27.46;75078.47;5019726;28;19928;-79
2021/07/17 10:45:39;;;;;;;;;;;;;;;-142.75;27.22;75107.97;5033485;28;21345;-80
2021/07/17 10:48:21;;;;;;;;;;;;;;;-142.75;27.00;75151.28;5033478;28;20002;-78
2021/07/17 10:50:46;;;;;;;;;;;;;;;-142.75;26.91;75180.78;5031960;28;19917;-78
2021/07/17 10:53:30;;;;;;;;;;;;;;;-142.75;27.55;75176.84;5031933;28;20386;-77
2021/07/17 10:55:55;;;;;;;;;;;;;;;-142.75;28.12;75186.69;5031072;28;19954;-77
2021/07/17 10:58:23;;;;;;;;;;;;;;;-142.75;27.83;75247.69;5021094;28;20383;-79
2021/07/17 11:00:49;;;;;;;;;;;;;;;-142.75;28.46;75180.78;5031075;28;20279;-77
2021/07/17 11:03:29;;;;;;;;;;;;;;;-142.75;28.06;75172.91;5015298;28;20011;-80
2021/07/17 11:05:54;;;;;;;;;;;;;;;-142.75;27.94;75104.03;5032851;28;20442;-80
2021/07/17 11:08:36;;;;;;;;;;;;;;;-142.75;27.51;75064.69;5016189;28;19917;-79
2021/07/17 11:11:21;;;;;;;;;;;;;;;-142.75;27.33;75102.06;5026741;28;19917;-80
2021/07/17 11:13:46;;;;;;;;;;;;;;;-142.75;27.88;75102.06;5012771;28;20004;-80
2021/07/17 11:16:11;;;;;;;;;;;;;;;-142.75;27.94;75098.16;5015195;28;20010;-80
2021/07/17 11:18:37;;;;;;;;;;;;;;;-142.75;28.14;75139.47;5015733;28;19917;-79
2021/07/17 11:21:04;;;;;;;;;;;;;;;-142.75;28.10;75102.06;5032681;28;19917;-79
2021/07/17 11:23:34;;;;;;;;;;;;;;;-142.75;27.94;75098.16;5033506;28;20552;-81
2021/07/17 11:26:00;;;;;;;;;;;;;;;-142.75;28.42;75141.44;5030877;28;19924;-80
2021/07/17 11:28:44;;;;;;;;;;;;;;;-142.75;28.12;75176.84;5033005;28;19979;-78
2021/07/17 11:31:27;;;;;;;;;;;;;;;-142.75;28.70;75196.53;5033854;28;19932;-79
2021/07/17 11:34:07;;;;;;;;;;;;;;;-142.75;28.05;75216.22;5032530;28;19975;-79
2021/07/17 11:36:33;;;;;;;;;;;;;;;-142.75;28.84;75251.63;5033845;28;20435;-78
2021/07/17 11:38:59;;;;;;;;;;;;;;;-142.75;29.63;75255.56;5032982;28;19948;-79
2021/07/17 11:41:24;;;;;;;;;;;;;;;-142.75;29.26;75247.69;5032100;28;20426;-80
2021/07/17 11:43:50;;;;;;;;;;;;;;;-142.75;29.30;75251.63;5034613;28;19921;-78
2021/07/17 11:46:15;;;;;;;;;;;;;;;-142.75;29.73;75235.88;5032875;28;19924;-81
2021/07/17 11:48:41;;;;;;;;;;;;;;;-142.75;29.40;75263.44;5032315;28;19971;-79
2021/07/17 11:51:06;;;;;;;;;;;;;;;-142.75;28.55;75279.19;5033380;28;20394;-80
2021/07/17 11:53:31;;;;;;;;;;;;;;;-142.75;29.62;75298.84;5033412;28;19956;-78
2021/07/17 11:55:57;;;;;;;;;;;;;;;-142.75;30.23;75302.78;5033084;28;20268;-83
2021/07/17 11:58:22;;;;;;;;;;;;;;;-142.75;30.50;75306.72;5034036;28;19928;-79
2021/07/17 12:00:48;;;;;;;;;;;;;;;-142.75;29.87;75344.13;5032541;28;19917;-80
2021/07/17 12:03:16;;;;;;;;;;;;;;;-142.75;30.32;75405.13;5032173;28;19921;-81
2021/07/17 12:05:41;;;;;;;;;;;;;;;-142.75;30.46;75436.59;5032744;28;20471;-81
2021/07/17 12:08:06;;;;;;;;;;;;;;;-142.75;30.42;75485.81;5036761;28;19956;-80
2021/07/17 12:10:31;;;;;;;;;;;;;;;-142.75;31.16;75540.91;5036406;28;19917;-80
2021/07/17 12:12:59;;;;;;;;;;;;;;;-142.75;31.80;75556.66;5040063;28;20015;-80
2021/07/17 12:15:24;;;;;;;;;;;;;;;-142.75;32.63;75590.13;5036708;28;19982;-80
2021/07/17 12:17:51;;;;;;;;;;;;;;;-142.75;32.63;75617.66;5036325;28;19921;-81
2021/07/17 12:20:33;;;;;;;;;;;;;;;-142.75;33.69;75659.00;5017958;28;19917;-79
2021/07/17 12:23:00;;;;;;;;;;;;;;;-142.75;32.69;75676.69;5037280;28;20440;-80